createdAt,value
2023-05-01T00:01:53.895Z,0.00
2023-05-01T00:06:53.917Z,0.00
2023-05-01T00:11:53.773Z,0.00
2023-05-01T00:16:53.778Z,0.00
2023-05-01T00:21:53.656Z,0.00
2023-05-01T00:26:53.583Z,0.00
2023-05-01T00:31:53.540Z,0.00
2023-05-01T00:36:54.147Z,0.00
2023-05-01T00:41:53.408Z,0.00
2023-05-01T00:46:53.362Z,0.00
2023-05-01T00:51:53.329Z,0.00
2023-05-01T00:56:53.218Z,0.00
2023-05-01T01:01:54.404Z,0.00
2023-05-01T01:06:53.071Z,0.00
2023-05-01T01:11:53.020Z,0.00
2023-05-01T01:16:52.971Z,0.00
2023-05-01T01:21:52.883Z,0.00
2023-05-01T01:26:52.825Z,0.00
2023-05-01T01:32:17.021Z,0.00
2023-05-01T01:36:52.674Z,0.00
2023-05-01T01:41:52.645Z,0.00
2023-05-01T01:46:52.530Z,0.00
2023-05-01T01:51:52.458Z,0.00
2023-05-01T01:56:52.397Z,0.00
2023-05-01T02:01:52.435Z,0.00
2023-05-01T02:06:52.369Z,0.00
2023-05-01T02:11:52.232Z,0.00
2023-05-01T02:16:52.139Z,0.00
2023-05-01T02:21:52.064Z,0.00
2023-05-01T02:26:51.989Z,0.00
2023-05-01T02:31:51.961Z,0.00
2023-05-01T02:36:51.861Z,0.00
2023-05-01T02:41:51.793Z,0.00
2023-05-01T02:46:51.767Z,0.00
2023-05-01T02:51:51.670Z,0.00
2023-05-01T02:56:51.600Z,0.00
2023-05-01T03:01:51.626Z,0.00
2023-05-01T03:06:51.513Z,0.00
2023-05-01T03:11:51.420Z,0.00
2023-05-01T03:16:51.345Z,0.00
2023-05-01T03:21:51.270Z,5.62
2023-05-01T03:26:51.218Z,11.25
2023-05-01T03:31:51.172Z,22.50
2023-05-01T03:36:51.075Z,28.12
2023-05-01T03:41:51.010Z,39.38
2023-05-01T03:46:50.940Z,67.50
2023-05-01T03:51:50.878Z,90.00
2023-05-01T03:56:50.841Z,123.75
2023-05-01T04:01:50.775Z,157.50
2023-05-01T04:06:50.757Z,208.12
2023-05-01T04:11:50.618Z,230.62
2023-05-01T04:16:50.588Z,315.00
2023-05-01T04:21:50.494Z,382.50
2023-05-01T04:26:50.432Z,680.62
2023-05-01T04:31:50.373Z,450.00
2023-05-01T04:36:50.282Z,652.50
2023-05-01T04:41:50.231Z,1333.12
2023-05-01T04:46:50.230Z,1558.12
2023-05-01T04:51:50.076Z,1710.00
2023-05-01T04:56:50.016Z,2092.50
2023-05-01T05:01:49.990Z,2300.62
2023-05-01T05:06:49.934Z,2413.12
2023-05-01T05:11:49.830Z,2030.62
2023-05-01T05:16:50.131Z,1485.00
2023-05-01T05:21:49.709Z,2154.38
2023-05-01T05:26:49.685Z,2345.62
2023-05-01T05:31:49.604Z,1951.88
2023-05-01T05:36:49.481Z,2919.38
2023-05-01T05:41:49.438Z,3813.75
2023-05-01T05:46:49.345Z,4252.50
2023-05-01T05:51:49.277Z,4303.12
2023-05-01T05:56:49.223Z,3026.25
2023-05-01T06:01:49.171Z,2351.25
2023-05-01T06:06:49.164Z,3543.75
2023-05-01T06:11:49.016Z,3521.25
2023-05-01T06:16:48.950Z,4308.75
2023-05-01T06:21:48.905Z,3414.38
2023-05-01T06:26:48.836Z,2908.12
2023-05-01T06:31:48.785Z,3459.38
2023-05-01T06:36:48.711Z,3116.25
2023-05-01T06:41:48.900Z,3375.00
2023-05-01T06:46:48.586Z,3391.88
2023-05-01T06:51:48.486Z,4280.62
2023-05-01T06:56:48.454Z,4933.12
2023-05-01T07:01:48.362Z,5017.50
2023-05-01T07:06:48.425Z,5355.00
2023-05-01T07:11:48.249Z,4786.88
2023-05-01T07:16:48.235Z,5096.25
2023-05-01T07:21:48.101Z,4741.88
2023-05-01T07:26:48.058Z,3886.88
2023-05-01T07:31:48.087Z,3701.25
2023-05-01T07:36:47.944Z,3751.88
2023-05-01T07:41:47.847Z,3538.12
2023-05-01T07:46:47.797Z,3060.00
2023-05-01T07:51:47.716Z,3211.88
2023-05-01T07:56:49.670Z,3903.75
2023-05-01T08:01:47.602Z,4426.88
2023-05-01T08:06:47.583Z,3301.88
2023-05-01T08:11:47.452Z,2261.25
2023-05-01T08:16:47.480Z,2165.62
2023-05-01T08:21:47.316Z,2036.25
2023-05-01T08:26:47.287Z,1918.12
2023-05-01T08:31:47.246Z,2475.00
2023-05-01T08:36:47.138Z,2368.12
2023-05-01T08:41:47.096Z,2272.50
2023-05-01T08:46:47.093Z,2075.62
2023-05-01T08:51:46.930Z,2317.50
2023-05-01T08:56:46.905Z,3369.38
2023-05-01T09:01:46.866Z,1040.62
2023-05-01T09:06:46.816Z,973.12
2023-05-01T09:11:46.657Z,928.12
2023-05-01T09:16:46.688Z,894.38
2023-05-01T09:21:46.536Z,838.12
2023-05-01T09:26:46.512Z,866.25
2023-05-01T09:31:46.453Z,855.00
2023-05-01T09:36:46.334Z,810.00
2023-05-01T09:41:46.343Z,787.50
2023-05-01T09:46:46.272Z,753.75
2023-05-01T09:51:46.144Z,703.12
2023-05-01T09:56:46.144Z,753.75
2023-05-01T10:01:46.142Z,753.75
2023-05-01T10:06:46.018Z,748.12
2023-05-01T10:11:45.867Z,753.75
2023-05-01T10:16:45.893Z,725.62
2023-05-01T10:21:45.784Z,652.50
2023-05-01T10:26:45.686Z,646.88
2023-05-01T10:31:45.712Z,675.00
2023-05-01T10:36:45.581Z,680.62
2023-05-01T10:41:45.499Z,697.50
2023-05-01T10:46:45.447Z,714.38
2023-05-01T10:51:45.327Z,731.25
2023-05-01T10:56:45.262Z,714.38
2023-05-01T11:01:45.274Z,686.25
2023-05-01T11:06:45.303Z,680.62
2023-05-01T11:11:45.095Z,731.25
2023-05-01T11:16:45.112Z,804.38
2023-05-01T11:21:45.018Z,838.12
2023-05-01T11:26:44.862Z,877.50
2023-05-01T11:31:44.827Z,843.75
2023-05-01T11:36:44.731Z,866.25
2023-05-01T11:41:44.704Z,815.62
2023-05-01T11:46:44.600Z,776.25
2023-05-01T11:51:44.545Z,697.50
2023-05-01T11:56:44.469Z,630.00
2023-05-01T12:01:44.403Z,511.88
2023-05-01T12:06:44.361Z,523.12
2023-05-01T12:11:44.355Z,590.62
2023-05-01T12:16:44.203Z,562.50
2023-05-01T12:21:44.133Z,556.88
2023-05-01T12:26:44.052Z,528.75
2023-05-01T12:31:44.062Z,517.50
2023-05-01T12:36:43.920Z,545.62
2023-05-01T12:41:43.855Z,534.38
2023-05-01T12:46:43.825Z,545.62
2023-05-01T12:51:43.723Z,500.62
2023-05-01T12:56:43.671Z,511.88
2023-05-01T13:01:43.636Z,489.38
2023-05-01T13:06:43.600Z,478.12
2023-05-01T13:11:43.467Z,433.12
2023-05-01T13:16:43.494Z,416.25
2023-05-01T13:21:43.322Z,427.50
2023-05-01T13:26:43.256Z,466.88
2023-05-01T13:31:43.212Z,444.38
2023-05-01T13:36:43.175Z,438.75
2023-05-01T13:41:43.050Z,461.25
2023-05-01T13:46:42.982Z,438.75
2023-05-01T13:51:42.922Z,371.25
2023-05-01T13:56:42.847Z,354.38
2023-05-01T14:01:42.965Z,405.00
2023-05-01T14:06:42.748Z,399.38
2023-05-01T14:11:42.651Z,405.00
2023-05-01T14:16:42.592Z,388.12
2023-05-01T14:21:42.540Z,410.62
2023-05-01T14:26:42.452Z,388.12
2023-05-01T14:31:42.435Z,371.25
2023-05-01T14:36:42.308Z,354.38
2023-05-01T14:41:42.270Z,343.12
2023-05-01T14:46:42.300Z,326.25
2023-05-01T14:51:42.207Z,326.25
2023-05-01T14:56:42.102Z,320.62
2023-05-01T15:01:42.129Z,315.00
2023-05-01T15:06:42.098Z,309.38
2023-05-01T15:11:41.955Z,315.00
2023-05-01T15:16:41.860Z,309.38
2023-05-01T15:21:41.791Z,315.00
2023-05-01T15:26:41.705Z,315.00
2023-05-01T15:31:41.681Z,326.25
2023-05-01T15:36:41.644Z,337.50
2023-05-01T15:41:41.524Z,343.12
2023-05-01T15:46:41.575Z,348.75
2023-05-01T15:51:41.422Z,343.12
2023-05-01T15:56:41.358Z,326.25
2023-05-01T16:01:41.384Z,320.62
2023-05-01T16:06:41.575Z,309.38
2023-05-01T16:11:41.094Z,298.12
2023-05-01T16:16:41.074Z,275.62
2023-05-01T16:21:41.035Z,241.88
2023-05-01T16:26:40.919Z,230.62
2023-05-01T16:31:40.919Z,213.75
2023-05-01T16:36:40.763Z,196.88
2023-05-01T16:41:40.705Z,180.00
2023-05-01T16:46:40.698Z,163.12
2023-05-01T16:51:40.570Z,146.25
2023-05-01T16:56:40.531Z,123.75
2023-05-01T17:01:40.800Z,118.12
2023-05-01T17:06:40.802Z,101.25
2023-05-01T17:11:40.316Z,95.62
2023-05-01T17:16:40.309Z,84.38
2023-05-01T17:21:40.121Z,78.75
2023-05-01T17:26:40.067Z,67.50
2023-05-01T17:31:40.264Z,61.88
2023-05-01T17:36:40.115Z,50.62
2023-05-01T17:41:39.853Z,45.00
2023-05-01T17:46:39.791Z,33.75
2023-05-01T17:51:39.727Z,28.12
2023-05-01T17:56:39.647Z,16.88
2023-05-01T18:01:39.681Z,11.25
2023-05-01T18:06:39.601Z,11.25
2023-05-01T18:11:39.446Z,5.62
2023-05-01T18:16:39.426Z,5.62
2023-05-01T18:21:39.342Z,0.00
2023-05-01T18:26:39.249Z,0.00
2023-05-01T18:31:39.191Z,0.00
2023-05-01T18:36:39.152Z,0.00
2023-05-01T18:41:39.045Z,0.00
2023-05-01T18:46:39.025Z,0.00
2023-05-01T18:51:38.956Z,0.00
2023-05-01T18:56:38.848Z,0.00
2023-05-01T19:01:38.860Z,0.00
2023-05-01T19:06:38.737Z,0.00
2023-05-01T19:11:38.643Z,0.00
2023-05-01T19:16:38.684Z,0.00
2023-05-01T19:21:38.499Z,0.00
2023-05-01T19:26:38.459Z,0.00
2023-05-01T19:31:38.469Z,0.00
2023-05-01T19:36:38.317Z,0.00
2023-05-01T19:41:38.239Z,0.00
2023-05-01T19:46:38.172Z,0.00
2023-05-01T19:51:38.100Z,0.00
2023-05-01T19:56:38.040Z,0.00
2023-05-01T20:01:38.062Z,0.00
2023-05-01T20:06:37.919Z,0.00
2023-05-01T20:11:37.840Z,0.00
2023-05-01T20:16:37.810Z,0.00
2023-05-01T20:21:37.707Z,0.00
2023-05-01T20:26:37.641Z,0.00
2023-05-01T20:31:37.663Z,0.00
2023-05-01T20:36:37.503Z,0.00
2023-05-01T20:41:37.440Z,0.00
2023-05-01T20:46:37.415Z,0.00
2023-05-01T20:51:37.306Z,0.00
2023-05-01T20:56:37.220Z,0.00
2023-05-01T21:01:37.258Z,0.00
2023-05-01T21:06:37.161Z,0.00
2023-05-01T21:11:37.032Z,0.00
2023-05-01T21:16:36.993Z,0.00
2023-05-01T21:21:36.916Z,0.00
2023-05-01T21:26:36.816Z,0.00
2023-05-01T21:31:37.000Z,0.00
2023-05-01T21:36:36.696Z,0.00
2023-05-01T21:41:36.629Z,0.00
2023-05-01T21:46:36.636Z,0.00
2023-05-01T21:51:36.484Z,0.00
2023-05-01T21:56:36.418Z,0.00
2023-05-01T22:01:36.458Z,0.00
2023-05-01T22:06:36.305Z,0.00
2023-05-01T22:11:36.211Z,0.00
2023-05-01T22:16:36.192Z,0.00
2023-05-01T22:21:36.078Z,0.00
2023-05-01T22:26:36.025Z,0.00
2023-05-01T22:31:36.054Z,0.00
2023-05-01T22:36:35.887Z,0.00
2023-05-01T22:41:35.830Z,0.00
2023-05-01T22:46:35.764Z,0.00
2023-05-01T22:51:35.693Z,0.00
2023-05-01T22:56:35.654Z,0.00
2023-05-01T23:01:35.669Z,0.00
2023-05-01T23:06:35.564Z,0.00
2023-05-01T23:11:35.439Z,0.00
2023-05-01T23:16:35.412Z,0.00
2023-05-01T23:21:35.333Z,0.00
2023-05-01T23:26:35.229Z,0.00
2023-05-01T23:31:35.281Z,0.00
2023-05-01T23:36:35.109Z,0.00
2023-05-01T23:41:35.041Z,0.00
2023-05-01T23:46:35.026Z,0.00
2023-05-01T23:51:34.912Z,0.00
2023-05-01T23:56:34.823Z,0.00
